VDPPVTBU

Guest
Details From VDPP - Phnom Penh Intl
To VTBU - Rayon U-Taphao Intl
Flight Number -
Tags generated
Created
Modified
Stats Distance 236 nm / 438 km
Max Altitude 22,700 ft / 6,919 m
Waypoints 4
Social Downloads 0
Likes 0
Share VATSIM

Download

Looking for another format? Having issues loading an existing format? Contact us
Advertisement - Login to hide

Notes

Basic altitude profile: - Ascent Rate: 2500ft/min - Ascent Speed: 250kts - Cruise Altitude: 35000ft - Cruise Speed: 420kts - Descent Rate: 1500ft/min - Descent Speed: 250kts

Route

VDPP PNH A340 BISOR VTBU

ID Type Via Altitude Latitude Longitude Leg Dist Tot Dist Heading (true) Name
O VDPP APT - 0 ft / 0 m 11.54654˚ 104.84414˚ - 0 nm - Phnom Penh Intl
PNH VOR - 0 ft / 0 m 11.54667˚ 104.84167˚ 0 nm 0 nm 273° / 273° PHNOM PENH VOR-DME
BISOR FIX A340 (AWY-HI) 22,700 ft / 6,919 m 12.35000˚ 102.78333˚ 130 nm 130 nm 292° / 292° -
O VTBU APT - 0 ft / 0 m 12.67995˚ 101.00503˚ 106 nm 236 nm 281° / 281° Rayon U-Taphao Intl

Altitude Profile

Advertisement - Login to hide

Weather


0- 5 10 15 20 25 30 35+ Temperature / ° C

Clouds and Precipitation
Forecast for 2017-12-19 00:00 UTC. Updated 2 hours ago

Ground ~20,000 ft ~40,000 ft Winds

VDPP

Details ICAO VDPP (PNH)
Name Phnom Penh Intl
Region Cambodia
Timezone Asia/Phnom_Penh (UTC+7.0)
Stats Elevation 40 ft / 12 m (AMSL)
Location 11.546542° 104.844142°
Runways 1
Magnetic Variation 0.493° W

METAR

Not found

TAF

TAF VDPP 181700Z 1818/1912 36010KT 9999 FEW017= TAF VDSR 181700Z 1818/1912 01009KT 9999 FEW017

Decode

Departure Runways

ID Width Length Bearing (true) Bearing (mag) Surface Threshold Offset Overrun Length
05 144 ft / 44 m 9,815 ft / 2,992 m 45.61° 46.10° Asphalt 400 ft / 122 m 0 ft / 0 m
23 144 ft / 44 m 9,815 ft / 2,992 m 225.61° 226.10° Asphalt 492 ft / 150 m 0 ft / 0 m

VTBU

Details ICAO VTBU (UTP)
Name Rayon U-Taphao Intl
Region Thailand
Timezone Asia/Bangkok (UTC+7.0)
Stats Elevation 59 ft / 18 m (AMSL)
Location 12.679954° 101.005033°
Runways 1
Magnetic Variation 0.519° W

METAR

VTBU 182230Z 02008KT 3000 HZ FEW025 16/10 Q1016 NOSIG

Decode

TAF

TAF VTBU 181700Z 1818/1918 01006KT 5000HZ FEW020 BECMG 1819/1821 06004KT 4000 BR BECMG 1902/1904 04010KT 7000

Decode

Destination Runways

ID Width Length Bearing (true) Bearing (mag) Surface Threshold Offset Overrun Length
18 197 ft / 60 m 11,627 ft / 3,544 m 184.62° 185.14° Asphalt 0 ft / 0 m 1,000 ft / 305 m
36 197 ft / 60 m 11,627 ft / 3,544 m 4.62° 5.14° Asphalt 0 ft / 0 m 1,000 ft / 305 m

Approach Navaids

Runway Type Ident Frequency Range Bearing (true) Bearing (mag) Slope Elevation
18 Localiser IBUT 111.10 MHz 18 nm / 33 km 184.62° 185.14° - 24 ft / 7 m (AMSL)
18 Glidescope IBUT 111.10 MHz 10 nm / 19 km 184.62° 185.14° 3.00° 59 ft / 18 m (AMSL)
18 DME IBUT 111.10 MHz 18 nm / 33 km - - - 59 ft / 18 m (AMSL)

Popular Alternatives